Time;durP1;ratioP1;P1;durP2;ratioP2;P2;SDS_P1;SDS_P2;PMS_P1;PMS_P2;Temp;Humidity;BMP_temperature;BMP_pressure;BME280_temperature;BME280_humidity;BME280_pressure;Samples;Min_cycle;Max_cycle;Signal;HPM_P1;HPM_P2
2022/02/17 00:01:59;;;;;;;0.73;0.50;;;;;;;;;;6145262;23;20594;-88
2022/02/17 00:05:03;;;;;;;1.53;0.70;;;;;;;;;;6145678;23;20157;-87
2022/02/17 00:08:07;;;;;;;0.80;0.53;;;;;;;;;;6136082;23;20478;-87
2022/02/17 00:11:11;;;;;;;0.50;0.50;;;;;;;;;;6136286;23;20172;-88
2022/02/17 00:14:15;;;;;;;0.40;0.40;;;;;;;;;;6136410;23;20192;-88
2022/02/17 00:17:19;;;;;;;0.40;0.40;;;;;;;;;;6162614;23;20153;-88
2022/02/17 00:20:24;;;;;;;0.40;0.40;;;;;;;;;;6145706;23;20153;-88
2022/02/17 00:23:28;;;;;;;0.53;0.30;;;;;;;;;;6156020;23;20188;-88
2022/02/17 00:26:34;;;;;;;0.50;0.50;;;;;;;;;;6162612;23;20177;-88
2022/02/17 00:29:39;;;;;;;0.60;0.47;;;;;;;;;;6162818;23;20153;-88
2022/02/17 00:32:42;;;;;;;0.50;0.40;;;;;;;;;;6159039;23;20193;-88
2022/02/17 00:35:47;;;;;;;0.30;0.30;;;;;;;;;;6162852;23;20153;-87
2022/02/17 00:38:52;;;;;;;0.57;0.50;;;;;;;;;;6145943;23;20157;-88
2022/02/17 00:41:56;;;;;;;0.50;0.50;;;;;;;;;;6162304;23;20153;-88
2022/02/17 00:45:00;;;;;;;0.57;0.50;;;;;;;;;;6145553;23;20157;-87
2022/02/17 00:48:05;;;;;;;0.43;0.40;;;;;;;;;;6162683;23;20157;-87
2022/02/17 00:51:16;;;;;;;1.00;0.50;;;;;;;;;;6147390;23;20161;-87
2022/02/17 00:54:20;;;;;;;0.40;0.40;;;;;;;;;;6116445;23;20157;-88
2022/02/17 00:57:25;;;;;;;0.47;0.47;;;;;;;;;;6132999;23;20150;-88
2022/02/17 01:00:29;;;;;;;0.40;0.40;;;;;;;;;;6132666;23;20153;-88
2022/02/17 01:03:41;;;;;;;0.37;0.37;;;;;;;;;;6128747;23;20186;-88
2022/02/17 01:06:45;;;;;;;1.40;0.40;;;;;;;;;;6135830;23;20189;-88
2022/02/17 01:09:51;;;;;;;0.50;0.40;;;;;;;;;;6134570;23;20158;-88
2022/02/17 01:12:55;;;;;;;1.00;0.47;;;;;;;;;;6128640;23;20189;-88
2022/02/17 01:15:59;;;;;;;0.50;0.40;;;;;;;;;;6132705;23;20150;-88
2022/02/17 01:19:03;;;;;;;0.60;0.30;;;;;;;;;;6132721;23;20161;-87
2022/02/17 01:22:07;;;;;;;0.40;0.40;;;;;;;;;;6139261;23;20174;-92
2022/02/17 01:25:14;;;;;;;0.57;0.30;;;;;;;;;;6123242;23;20169;-88
2022/02/17 01:28:20;;;;;;;0.30;0.30;;;;;;;;;;6139244;23;20173;-91
2022/02/17 01:31:28;;;;;;;0.40;0.40;;;;;;;;;;6133609;23;20154;-91
2022/02/17 01:34:41;;;;;;;0.63;0.50;;;;;;;;;;6151276;23;20158;-91
2022/02/17 01:37:46;;;;;;;0.30;0.30;;;;;;;;;;6132469;23;20153;-91
2022/02/17 01:40:51;;;;;;;0.50;0.40;;;;;;;;;;6139932;23;20174;-88
2022/02/17 01:44:00;;;;;;;0.40;0.40;;;;;;;;;;6139221;23;20193;-91
2022/02/17 01:47:10;;;;;;;0.30;0.30;;;;;;;;;;6149176;23;20185;-91
2022/02/17 01:50:16;;;;;;;0.53;0.50;;;;;;;;;;6148926;23;20154;-91
2022/02/17 01:53:21;;;;;;;0.70;0.40;;;;;;;;;;6160223;23;20200;-91
2022/02/17 01:56:29;;;;;;;0.40;0.40;;;;;;;;;;6178296;23;20149;-91
2022/02/17 01:59:47;;;;;;;0.30;0.30;;;;;;;;;;6161668;23;20153;-91
2022/02/17 02:02:58;;;;;;;0.40;0.40;;;;;;;;;;6158466;23;20192;-92
2022/02/17 02:06:19;;;;;;;0.40;0.40;;;;;;;;;;6165418;23;20181;-92
2022/02/17 02:09:50;;;;;;;1.70;0.30;;;;;;;;;;6178889;23;20157;-91
2022/02/17 02:13:05;;;;;;;0.40;0.30;;;;;;;;;;6156337;23;20507;-91
2022/02/17 02:16:19;;;;;;;1.07;0.30;;;;;;;;;;6163717;23;20153;-91
2022/02/17 02:19:23;;;;;;;0.43;0.30;;;;;;;;;;6161832;23;20153;-91
2022/02/17 02:22:33;;;;;;;0.30;0.30;;;;;;;;;;6151269;23;20184;-91
2022/02/17 02:25:40;;;;;;;0.40;0.37;;;;;;;;;;6152055;23;20629;-91
2022/02/17 02:28:44;;;;;;;0.97;0.30;;;;;;;;;;6168205;23;20169;-92
2022/02/17 02:31:48;;;;;;;1.33;0.30;;;;;;;;;;6134848;23;20172;-91
2022/02/17 02:34:52;;;;;;;0.73;0.37;;;;;;;;;;6151673;23;20168;-91
2022/02/17 02:37:57;;;;;;;0.40;0.40;;;;;;;;;;6161914;23;20153;-91
2022/02/17 02:41:06;;;;;;;0.40;0.40;;;;;;;;;;6145497;23;20157;-91
2022/02/17 02:44:19;;;;;;;0.50;0.40;;;;;;;;;;6163375;23;20157;-91
2022/02/17 02:47:30;;;;;;;0.87;0.30;;;;;;;;;;6162828;23;20181;-91
2022/02/17 02:50:36;;;;;;;3.20;0.30;;;;;;;;;;6161421;23;20463;-91
2022/02/17 02:53:59;;;;;;;1.07;0.60;;;;;;;;;;6161421;23;20201;-91
2022/02/17 02:57:07;;;;;;;0.33;0.33;;;;;;;;;;6145086;23;20157;-91
2022/02/17 03:00:12;;;;;;;0.30;0.30;;;;;;;;;;6134411;23;20173;-91
2022/02/17 03:03:17;;;;;;;0.40;0.40;;;;;;;;;;6139022;23;20188;-91
2022/02/17 03:06:22;;;;;;;0.57;0.40;;;;;;;;;;6160551;23;20160;-91
2022/02/17 03:09:27;;;;;;;1.37;0.50;;;;;;;;;;6177805;23;20156;-91
2022/02/17 03:12:36;;;;;;;0.57;0.50;;;;;;;;;;6175172;23;20192;-91
2022/02/17 03:15:40;;;;;;;0.30;0.30;;;;;;;;;;6160866;23;20152;-91
2022/02/17 03:18:46;;;;;;;0.40;0.40;;;;;;;;;;6161009;23;20153;-92
2022/02/17 03:21:53;;;;;;;0.20;0.20;;;;;;;;;;6134614;23;20169;-91
2022/02/17 03:24:58;;;;;;;1.40;0.43;;;;;;;;;;6151385;23;20176;-91
2022/02/17 03:28:02;;;;;;;1.13;0.47;;;;;;;;;;6161405;23;20185;-92
2022/02/17 03:31:16;;;;;;;1.13;0.20;;;;;;;;;;6153232;23;20168;-91
2022/02/17 03:34:34;;;;;;;0.37;0.30;;;;;;;;;;6137386;23;20164;-92
2022/02/17 03:37:39;;;;;;;0.20;0.20;;;;;;;;;;6178327;23;20149;-92
2022/02/17 03:40:43;;;;;;;0.43;0.20;;;;;;;;;;6151287;23;20169;-92
2022/02/17 03:43:49;;;;;;;0.27;0.27;;;;;;;;;;6167837;23;20188;-92
2022/02/17 03:47:00;;;;;;;0.67;0.37;;;;;;;;;;6161594;23;20184;-91
2022/02/17 03:50:20;;;;;;;2.33;0.30;;;;;;;;;;6178153;23;20590;-91
2022/02/17 03:53:32;;;;;;;1.50;0.40;;;;;;;;;;6172869;23;20205;-91
2022/02/17 03:56:38;;;;;;;1.80;0.30;;;;;;;;;;6161576;23;20157;-91
2022/02/17 03:59:54;;;;;;;0.27;0.27;;;;;;;;;;6163525;23;20456;-88
2022/02/17 04:03:01;;;;;;;0.70;0.30;;;;;;;;;;6173809;23;20189;-88
2022/02/17 04:06:08;;;;;;;0.20;0.20;;;;;;;;;;6151891;23;20172;-88
2022/02/17 04:09:13;;;;;;;0.30;0.30;;;;;;;;;;6178894;23;20154;-88
2022/02/17 04:12:18;;;;;;;1.70;0.30;;;;;;;;;;6160463;23;20192;-88
2022/02/17 04:15:23;;;;;;;0.20;0.20;;;;;;;;;;6144688;23;20153;-88
2022/02/17 04:18:28;;;;;;;0.30;0.27;;;;;;;;;;6144580;23;20153;-88
2022/02/17 04:21:50;;;;;;;0.27;0.27;;;;;;;;;;6177704;23;20157;-88
2022/02/17 04:25:13;;;;;;;1.23;0.30;;;;;;;;;;6148374;23;20157;-89
2022/02/17 04:28:19;;;;;;;0.27;0.27;;;;;;;;;;6161684;23;20184;-88
2022/02/17 04:31:24;;;;;;;0.30;0.30;;;;;;;;;;6144566;23;20157;-88
2022/02/17 04:34:29;;;;;;;0.20;0.20;;;;;;;;;;6161418;23;20157;-88
2022/02/17 04:37:43;;;;;;;1.80;0.30;;;;;;;;;;6137650;23;20165;-88
2022/02/17 04:44:15;;;;;;;0.30;0.30;;;;;;;;;;6153571;23;20649;-88
2022/02/17 04:47:21;;;;;;;0.77;0.30;;;;;;;;;;6146447;23;20181;-88
2022/02/17 04:50:25;;;;;;;0.23;0.20;;;;;;;;;;6146018;23;20153;-88
2022/02/17 04:53:29;;;;;;;0.40;0.20;;;;;;;;;;6172685;23;20200;-88
2022/02/17 04:56:36;;;;;;;0.20;0.20;;;;;;;;;;6136446;23;20165;-88
2022/02/17 04:59:40;;;;;;;0.30;0.30;;;;;;;;;;6169686;23;20164;-88
2022/02/17 05:02:44;;;;;;;0.30;0.30;;;;;;;;;;6136399;23;20189;-88
2022/02/17 05:06:11;;;;;;;0.20;0.20;;;;;;;;;;6167341;23;20158;-88
2022/02/17 05:09:21;;;;;;;0.87;0.30;;;;;;;;;;6162345;23;20157;-88
2022/02/17 05:12:28;;;;;;;0.20;0.20;;;;;;;;;;6178155;23;20515;-88
2022/02/17 05:15:32;;;;;;;0.50;0.37;;;;;;;;;;6145637;23;20161;-88
2022/02/17 05:18:41;;;;;;;0.30;0.30;;;;;;;;;;6163436;23;20153;-88
2022/02/17 05:21:51;;;;;;;0.30;0.30;;;;;;;;;;6146939;23;20161;-88
2022/02/17 05:25:14;;;;;;;0.20;0.20;;;;;;;;;;6179400;23;20158;-88
2022/02/17 05:28:34;;;;;;;0.30;0.30;;;;;;;;;;6178849;23;20185;-87
2022/02/17 05:32:05;;;;;;;0.20;0.20;;;;;;;;;;6176743;23;20177;-88
2022/02/17 05:35:15;;;;;;;0.83;0.23;;;;;;;;;;6146685;23;20153;-87
2022/02/17 05:38:38;;;;;;;1.13;0.30;;;;;;;;;;6165249;23;20157;-89
2022/02/17 05:42:03;;;;;;;0.23;0.23;;;;;;;;;;6160716;23;20468;-88
2022/02/17 05:45:08;;;;;;;0.20;0.20;;;;;;;;;;6162644;23;20149;-88
2022/02/17 05:48:13;;;;;;;0.20;0.20;;;;;;;;;;6148677;23;20184;-88
2022/02/17 05:51:18;;;;;;;0.20;0.20;;;;;;;;;;6145065;23;20157;-88
2022/02/17 05:54:23;;;;;;;0.20;0.20;;;;;;;;;;6151730;23;20487;-88
2022/02/17 05:57:27;;;;;;;0.30;0.30;;;;;;;;;;6162048;23;20153;-86
2022/02/17 06:00:31;;;;;;;1.17;0.20;;;;;;;;;;6161909;23;20157;-86
2022/02/17 06:03:36;;;;;;;0.20;0.20;;;;;;;;;;6154320;23;20649;-86
2022/02/17 06:06:40;;;;;;;0.20;0.20;;;;;;;;;;6161539;23;20149;-86
2022/02/17 06:09:45;;;;;;;0.23;0.23;;;;;;;;;;6178930;23;20599;-86
2022/02/17 06:12:49;;;;;;;0.53;0.20;;;;;;;;;;6174893;23;20193;-86
2022/02/17 06:15:53;;;;;;;1.27;0.20;;;;;;;;;;6178500;23;20153;-87
2022/02/17 06:19:28;;;;;;;0.40;0.30;;;;;;;;;;6161169;23;20464;-87
2022/02/17 06:22:43;;;;;;;0.20;0.20;;;;;;;;;;6158869;23;20188;-87
2022/02/17 06:25:47;;;;;;;0.97;0.47;;;;;;;;;;6161328;23;20471;-88
2022/02/17 06:28:54;;;;;;;0.27;0.27;;;;;;;;;;6161297;23;20185;-88
2022/02/17 06:31:58;;;;;;;0.20;0.20;;;;;;;;;;6144085;23;20153;-88
2022/02/17 06:35:03;;;;;;;0.30;0.30;;;;;;;;;;6178048;23;20157;-88
2022/02/17 06:38:07;;;;;;;1.70;0.27;;;;;;;;;;6160878;23;20602;-88
2022/02/17 06:41:17;;;;;;;0.53;0.30;;;;;;;;;;6161762;23;20157;-88
2022/02/17 06:44:21;;;;;;;0.40;0.40;;;;;;;;;;6179072;23;20153;-89
2022/02/17 06:47:25;;;;;;;0.40;0.40;;;;;;;;;;6167573;23;20156;-88
2022/02/17 06:50:30;;;;;;;0.30;0.30;;;;;;;;;;6150876;23;20153;-88
2022/02/17 06:53:36;;;;;;;0.83;0.30;;;;;;;;;;6174936;23;20216;-88
2022/02/17 06:56:41;;;;;;;0.30;0.30;;;;;;;;;;6144153;23;20153;-89
2022/02/17 06:59:45;;;;;;;0.30;0.30;;;;;;;;;;6161303;23;20594;-88
2022/02/17 07:02:52;;;;;;;4.10;0.40;;;;;;;;;;6134545;23;20653;-88
2022/02/17 07:05:55;;;;;;;0.30;0.30;;;;;;;;;;6178222;23;20471;-88
2022/02/17 07:09:00;;;;;;;0.30;0.30;;;;;;;;;;6160769;23;20495;-88
2022/02/17 07:12:04;;;;;;;0.27;0.27;;;;;;;;;;6151119;23;20173;-88
2022/02/17 07:15:10;;;;;;;1.00;0.30;;;;;;;;;;6151426;23;20173;-88
2022/02/17 07:18:15;;;;;;;0.60;0.50;;;;;;;;;;6144678;23;20153;-88
2022/02/17 07:21:19;;;;;;;0.30;0.30;;;;;;;;;;6196526;23;20180;-88
2022/02/17 07:24:24;;;;;;;0.40;0.33;;;;;;;;;;6144067;23;20149;-88
2022/02/17 07:27:29;;;;;;;0.30;0.30;;;;;;;;;;6151123;23;20173;-88
2022/02/17 07:30:35;;;;;;;0.40;0.30;;;;;;;;;;6150426;23;20172;-88
2022/02/17 07:33:39;;;;;;;0.53;0.30;;;;;;;;;;6167865;23;20193;-87
2022/02/17 07:36:43;;;;;;;2.73;0.73;;;;;;;;;;6167739;23;20169;-87
2022/02/17 07:39:48;;;;;;;2.03;1.90;;;;;;;;;;6150719;23;20168;-87
2022/02/17 07:42:52;;;;;;;1.80;1.10;;;;;;;;;;6156878;23;20196;-87
2022/02/17 07:46:00;;;;;;;0.80;0.80;;;;;;;;;;6160984;23;20606;-87
2022/02/17 07:49:04;;;;;;;1.97;0.90;;;;;;;;;;6160577;23;20181;-87
2022/02/17 07:52:09;;;;;;;3.40;1.20;;;;;;;;;;6159352;23;20153;-87
2022/02/17 07:55:13;;;;;;;0.80;0.80;;;;;;;;;;6178018;23;20156;-88
2022/02/17 07:58:37;;;;;;;3.03;1.80;;;;;;;;;;6181679;23;20153;-88
2022/02/17 08:01:42;;;;;;;2.17;1.10;;;;;;;;;;6177475;23;20157;-88
2022/02/17 08:04:47;;;;;;;5.37;0.70;;;;;;;;;;6160735;23;20153;-87
2022/02/17 08:07:51;;;;;;;2.70;0.70;;;;;;;;;;6177606;23;20153;-88
2022/02/17 08:10:55;;;;;;;1.67;0.87;;;;;;;;;;6162051;23;20157;-87
2022/02/17 08:14:00;;;;;;;1.77;1.00;;;;;;;;;;6137118;23;20196;-87
2022/02/17 08:17:04;;;;;;;3.80;1.40;;;;;;;;;;6145467;23;20157;-89
2022/02/17 08:20:11;;;;;;;3.53;1.27;;;;;;;;;;6154738;23;20172;-89
2022/02/17 08:23:15;;;;;;;2.83;1.10;;;;;;;;;;6173003;23;20192;-87
2022/02/17 08:26:19;;;;;;;11.23;6.67;;;;;;;;;;6163106;23;20157;-87
2022/02/17 08:29:24;;;;;;;5.90;2.27;;;;;;;;;;6179456;23;20638;-87
2022/02/17 08:32:33;;;;;;;4.50;1.50;;;;;;;;;;6176987;23;20193;-87
2022/02/17 08:35:38;;;;;;;6.53;1.70;;;;;;;;;;6162841;23;20157;-88
2022/02/17 08:38:42;;;;;;;3.47;1.00;;;;;;;;;;6162957;23;20148;-88
2022/02/17 08:41:46;;;;;;;3.70;1.13;;;;;;;;;;6145889;23;20456;-87
2022/02/17 08:44:50;;;;;;;6.50;1.80;;;;;;;;;;6145355;23;20157;-87
2022/02/17 08:47:56;;;;;;;2.87;1.27;;;;;;;;;;6163497;23;20157;-87
2022/02/17 08:51:00;;;;;;;4.30;1.80;;;;;;;;;;6145761;23;20157;-87
2022/02/17 08:54:04;;;;;;;4.67;1.07;;;;;;;;;;6153480;23;20200;-86
2022/02/17 08:57:08;;;;;;;7.60;1.63;;;;;;;;;;6145389;23;20157;-87
2022/02/17 09:00:14;;;;;;;37.07;22.23;;;;;;;;;;6145218;23;20149;-87
2022/02/17 09:03:18;;;;;;;13.23;6.70;;;;;;;;;;6157831;23;20196;-87
2022/02/17 09:06:23;;;;;;;4.20;1.87;;;;;;;;;;6162546;23;20156;-87
2022/02/17 09:09:27;;;;;;;5.70;2.60;;;;;;;;;;6145546;23;20185;-87
2022/02/17 09:12:33;;;;;;;7.60;2.63;;;;;;;;;;6135085;23;20193;-87
2022/02/17 09:15:38;;;;;;;4.70;2.00;;;;;;;;;;6135469;23;20169;-87
2022/02/17 09:18:42;;;;;;;5.13;1.57;;;;;;;;;;6162215;23;20590;-87
2022/02/17 09:21:46;;;;;;;3.83;1.57;;;;;;;;;;6145934;23;20157;-87
2022/02/17 09:24:53;;;;;;;5.43;1.60;;;;;;;;;;6179775;23;20157;-87
2022/02/17 09:27:57;;;;;;;7.30;2.07;;;;;;;;;;6167790;23;20153;-87
2022/02/17 09:31:02;;;;;;;9.23;3.43;;;;;;;;;;6150021;23;20153;-87
2022/02/17 09:34:10;;;;;;;4.43;1.27;;;;;;;;;;6136070;23;20189;-87
2022/02/17 09:37:14;;;;;;;2.57;1.37;;;;;;;;;;6144967;23;20149;-87
2022/02/17 09:40:20;;;;;;;4.73;2.03;;;;;;;;;;6145741;23;20457;-87
2022/02/17 09:43:24;;;;;;;3.50;1.60;;;;;;;;;;6155807;23;20193;-87
2022/02/17 09:46:28;;;;;;;6.73;2.77;;;;;;;;;;6145053;23;20153;-88
2022/02/17 09:49:33;;;;;;;3.27;1.23;;;;;;;;;;6178860;23;20185;-87
2022/02/17 09:52:38;;;;;;;3.03;1.07;;;;;;;;;;6174604;23;20200;-87
2022/02/17 09:55:44;;;;;;;3.67;1.13;;;;;;;;;;6151936;23;20213;-86
2022/02/17 09:58:50;;;;;;;3.87;1.03;;;;;;;;;;6132761;23;20153;-87
2022/02/17 10:01:56;;;;;;;5.30;1.37;;;;;;;;;;6166140;23;20591;-87
2022/02/17 10:05:04;;;;;;;13.23;7.10;;;;;;;;;;6130707;23;20193;-88
2022/02/17 10:08:21;;;;;;;4.53;1.70;;;;;;;;;;6093226;23;20173;-88
2022/02/17 10:11:29;;;;;;;5.10;1.70;;;;;;;;;;6103088;23;20158;-89
2022/02/17 10:14:34;;;;;;;9.33;2.07;;;;;;;;;;6132115;23;20194;-88
2022/02/17 10:17:58;;;;;;;6.67;1.63;;;;;;;;;;6120742;23;20158;-86
2022/02/17 10:21:07;;;;;;;5.30;1.33;;;;;;;;;;6120045;23;20596;-87
2022/02/17 10:24:32;;;;;;;9.27;1.77;;;;;;;;;;6101826;23;20194;-88
2022/02/17 10:27:39;;;;;;;5.20;2.30;;;;;;;;;;6136860;23;20159;-87
2022/02/17 10:30:43;;;;;;;7.90;2.73;;;;;;;;;;6136864;23;20158;-86
2022/02/17 10:33:52;;;;;;;7.83;3.00;;;;;;;;;;6118108;23;20599;-88
2022/02/17 10:36:56;;;;;;;5.13;1.63;;;;;;;;;;6102605;23;20158;-87
2022/02/17 10:40:25;;;;;;;5.27;1.20;;;;;;;;;;6102493;23;20606;-87
2022/02/17 10:43:31;;;;;;;7.97;1.63;;;;;;;;;;6136163;23;20158;-87
2022/02/17 10:46:36;;;;;;;8.03;1.70;;;;;;;;;;6136359;23;20154;-86
2022/02/17 10:49:49;;;;;;;7.23;1.43;;;;;;;;;;6119165;23;20182;-87
2022/02/17 10:52:53;;;;;;;6.60;1.53;;;;;;;;;;6103118;23;20159;-86
2022/02/17 10:55:59;;;;;;;5.63;1.90;;;;;;;;;;6126466;23;20639;-89
2022/02/17 11:00:00;;;;;;;10.47;1.93;;;;;;;;;;6103127;23;20150;-88
2022/02/17 11:02:35;;;;;;;7.87;2.10;;;;;;;;;;6118746;23;20488;-87
2022/02/17 11:05:40;;;;;;;6.30;1.67;;;;;;;;;;6094548;23;20190;-87
2022/02/17 11:08:49;;;;;;;7.30;1.53;;;;;;;;;;6102231;23;20599;-87
2022/02/17 11:11:54;;;;;;;8.47;2.00;;;;;;;;;;6137596;23;20579;-87
2022/02/17 11:14:59;;;;;;;9.70;2.17;;;;;;;;;;6130697;23;20185;-89
2022/02/17 11:18:04;;;;;;;9.23;2.13;;;;;;;;;;6119176;23;20469;-87
2022/02/17 11:21:14;;;;;;;8.90;2.00;;;;;;;;;;6102087;23;20150;-87
2022/02/17 11:24:18;;;;;;;9.83;2.00;;;;;;;;;;6099564;23;20505;-88
2022/02/17 11:27:23;;;;;;;8.80;2.23;;;;;;;;;;6102680;23;20158;-87
2022/02/17 11:30:28;;;;;;;12.87;2.07;;;;;;;;;;6102629;23;20186;-87
2022/02/17 11:33:39;;;;;;;7.87;1.93;;;;;;;;;;6126389;23;20169;-87
2022/02/17 11:36:43;;;;;;;9.33;1.93;;;;;;;;;;6102006;23;20154;-88
2022/02/17 11:40:03;;;;;;;8.00;2.50;;;;;;;;;;6102351;23;20146;-86
2022/02/17 11:43:09;;;;;;;13.50;2.03;;;;;;;;;;6102388;23;20470;-86
2022/02/17 11:46:14;;;;;;;14.97;2.00;;;;;;;;;;6125912;23;20184;-88
2022/02/17 11:49:31;;;;;;;12.80;2.20;;;;;;;;;;6102395;23;20187;-86
2022/02/17 11:52:37;;;;;;;15.27;2.50;;;;;;;;;;6135882;23;20492;-89
2022/02/17 11:55:42;;;;;;;15.17;3.67;;;;;;;;;;6110421;23;20203;-86
2022/02/17 11:58:48;;;;;;;10.33;2.33;;;;;;;;;;6119790;23;20154;-86
2022/02/17 12:01:54;;;;;;;10.07;2.33;;;;;;;;;;6135504;23;20460;-88
2022/02/17 12:05:15;;;;;;;8.97;2.63;;;;;;;;;;6113355;23;20677;-88
2022/02/17 12:08:22;;;;;;;9.70;2.60;;;;;;;;;;6135723;23;20158;-86
2022/02/17 12:11:29;;;;;;;10.43;2.47;;;;;;;;;;6109632;23;20619;-88
2022/02/17 12:14:44;;;;;;;18.47;3.10;;;;;;;;;;6097937;23;20197;-87
2022/02/17 12:17:49;;;;;;;8.30;2.17;;;;;;;;;;6136545;23;20159;-87
2022/02/17 12:20:58;;;;;;;9.63;2.00;;;;;;;;;;6102163;23;20147;-86
2022/02/17 12:24:02;;;;;;;11.43;2.10;;;;;;;;;;6100980;23;20194;-87
2022/02/17 12:27:06;;;;;;;6.80;1.90;;;;;;;;;;6119261;23;20151;-87
2022/02/17 12:30:11;;;;;;;8.17;1.70;;;;;;;;;;6152422;23;20190;-87
2022/02/17 12:33:22;;;;;;;5.73;1.77;;;;;;;;;;6101612;23;20151;-86
2022/02/17 12:36:35;;;;;;;9.07;2.20;;;;;;;;;;6119387;23;20154;-85
2022/02/17 12:39:43;;;;;;;13.43;4.33;;;;;;;;;;6136152;23;20151;-87
2022/02/17 12:42:51;;;;;;;11.50;4.10;;;;;;;;;;6092825;23;20170;-88
2022/02/17 12:45:56;;;;;;;8.63;1.90;;;;;;;;;;6125897;23;20528;-86
2022/02/17 12:49:07;;;;;;;9.43;2.00;;;;;;;;;;6152236;23;20154;-85
2022/02/17 12:52:15;;;;;;;9.57;1.87;;;;;;;;;;6092394;23;20170;-87
2022/02/17 12:55:20;;;;;;;12.63;2.17;;;;;;;;;;6134739;23;20201;-86
2022/02/17 12:58:33;;;;;;;7.43;1.60;;;;;;;;;;6120544;23;20161;-86
2022/02/17 13:01:55;;;;;;;7.80;2.10;;;;;;;;;;6095035;23;20166;-86
2022/02/17 13:04:59;;;;;;;10.73;2.00;;;;;;;;;;6097947;23;20190;-87
2022/02/17 13:08:04;;;;;;;10.70;2.33;;;;;;;;;;6104493;23;20223;-86
2022/02/17 13:11:11;;;;;;;5.93;1.53;;;;;;;;;;6105974;23;20192;-86
2022/02/17 13:14:16;;;;;;;11.13;2.30;;;;;;;;;;6134440;23;20190;-88
2022/02/17 13:17:25;;;;;;;8.90;2.00;;;;;;;;;;6104375;23;20165;-85
2022/02/17 13:20:32;;;;;;;8.47;2.00;;;;;;;;;;6127236;23;20175;-87
2022/02/17 13:23:36;;;;;;;8.43;1.93;;;;;;;;;;6136863;23;20154;-87
2022/02/17 13:26:41;;;;;;;7.50;1.80;;;;;;;;;;6137053;23;20592;-86
2022/02/17 13:29:52;;;;;;;6.07;1.97;;;;;;;;;;6127304;23;20194;-86
2022/02/17 13:32:59;;;;;;;6.77;1.80;;;;;;;;;;6137057;23;20155;-86
2022/02/17 13:36:04;;;;;;;9.10;1.73;;;;;;;;;;6137367;23;20154;-86
2022/02/17 13:39:20;;;;;;;8.30;1.80;;;;;;;;;;6093683;23;20173;-86
2022/02/17 13:42:25;;;;;;;12.07;2.00;;;;;;;;;;6103741;23;20155;-86
2022/02/17 13:45:32;;;;;;;7.70;1.70;;;;;;;;;;6095800;23;20534;-86
2022/02/17 13:48:37;;;;;;;7.60;1.87;;;;;;;;;;6103782;23;20592;-86
2022/02/17 13:51:46;;;;;;;6.50;1.67;;;;;;;;;;6136709;23;20283;-86
2022/02/17 13:54:52;;;;;;;6.63;1.80;;;;;;;;;;6130923;23;20201;-85
2022/02/17 13:58:00;;;;;;;8.03;1.90;;;;;;;;;;6135237;23;20445;-86
2022/02/17 14:01:05;;;;;;;10.50;2.57;;;;;;;;;;6134755;23;20154;-88
2022/02/17 14:04:32;;;;;;;9.90;2.80;;;;;;;;;;6099667;23;20202;-86
2022/02/17 14:07:38;;;;;;;11.50;2.40;;;;;;;;;;6118232;23;20461;-86
2022/02/17 14:10:41;;;;;;;9.13;2.43;;;;;;;;;;6134619;23;20189;-84
2022/02/17 14:13:47;;;;;;;10.20;2.80;;;;;;;;;;6108986;23;20174;-86
2022/02/17 14:16:53;;;;;;;8.83;2.63;;;;;;;;;;6092009;23;20181;-86
2022/02/17 14:19:57;;;;;;;10.70;2.77;;;;;;;;;;6101629;23;20154;-89
2022/02/17 14:23:01;;;;;;;8.70;2.23;;;;;;;;;;6135292;23;20165;-86
2022/02/17 14:26:05;;;;;;;8.87;2.33;;;;;;;;;;6101675;23;20158;-86
2022/02/17 14:29:09;;;;;;;6.90;1.97;;;;;;;;;;6118999;23;20158;-86
2022/02/17 14:32:13;;;;;;;7.53;2.00;;;;;;;;;;6117968;23;20158;-88
2022/02/17 14:35:18;;;;;;;6.93;2.00;;;;;;;;;;6095526;23;20194;-85
2022/02/17 14:38:22;;;;;;;6.23;1.80;;;;;;;;;;6102164;23;20158;-86
2022/02/17 14:41:26;;;;;;;4.57;2.17;;;;;;;;;;6135282;23;20580;-86
2022/02/17 14:44:34;;;;;;;8.30;1.80;;;;;;;;;;6114502;23;20193;-86
2022/02/17 14:47:39;;;;;;;6.53;2.40;;;;;;;;;;6102145;23;20155;-86
2022/02/17 14:50:43;;;;;;;10.23;2.63;;;;;;;;;;6152694;23;20189;-87
2022/02/17 14:53:49;;;;;;;8.57;2.30;;;;;;;;;;6058237;23;1056404;-87
2022/02/17 14:56:53;;;;;;;9.10;3.10;;;;;;;;;;6115574;23;20164;-87
2022/02/17 14:59:57;;;;;;;14.93;5.13;;;;;;;;;;6132833;23;20158;-87
2022/02/17 15:03:01;;;;;;;45.43;20.70;;;;;;;;;;6118458;23;20173;-86
2022/02/17 15:06:05;;;;;;;20.33;7.73;;;;;;;;;;6132274;23;20181;-87
2022/02/17 15:09:09;;;;;;;8.00;2.50;;;;;;;;;;6149301;23;20153;-86
2022/02/17 15:12:13;;;;;;;7.93;2.10;;;;;;;;;;6132830;23;20161;-86
2022/02/17 15:15:18;;;;;;;10.73;2.53;;;;;;;;;;6124925;23;20193;-87
2022/02/17 15:18:22;;;;;;;8.53;2.77;;;;;;;;;;6138891;23;20499;-87
2022/02/17 15:21:26;;;;;;;11.30;3.07;;;;;;;;;;6139068;23;20169;-86
2022/02/17 15:24:31;;;;;;;11.07;3.30;;;;;;;;;;6113820;23;20201;-87
2022/02/17 15:27:35;;;;;;;7.40;2.40;;;;;;;;;;6131442;23;20164;-88
2022/02/17 15:30:39;;;;;;;10.07;2.70;;;;;;;;;;6131340;23;20185;-86
2022/02/17 15:33:43;;;;;;;13.67;3.03;;;;;;;;;;6132122;23;20170;-86
2022/02/17 15:36:48;;;;;;;13.07;2.90;;;;;;;;;;6149259;23;20153;-87
2022/02/17 15:39:54;;;;;;;11.70;2.63;;;;;;;;;;6156001;23;20180;-86
2022/02/17 15:42:59;;;;;;;11.53;2.70;;;;;;;;;;6122293;23;20166;-87
2022/02/17 15:46:03;;;;;;;12.33;2.50;;;;;;;;;;6105471;23;20220;-86
2022/02/17 15:49:07;;;;;;;15.10;2.47;;;;;;;;;;6149040;23;20156;-85
2022/02/17 15:52:13;;;;;;;14.13;2.60;;;;;;;;;;6115225;23;20197;-88
2022/02/17 15:55:18;;;;;;;12.27;2.87;;;;;;;;;;6118433;23;20208;-89
2022/02/17 15:58:23;;;;;;;10.30;2.57;;;;;;;;;;6102493;23;20158;-88
2022/02/17 16:01:27;;;;;;;12.33;2.80;;;;;;;;;;6102172;23;20157;-86
2022/02/17 16:04:31;;;;;;;10.30;2.70;;;;;;;;;;6115975;23;20196;-86
2022/02/17 16:07:36;;;;;;;13.67;3.10;;;;;;;;;;6103871;23;20165;-85
2022/02/17 16:10:41;;;;;;;15.87;2.70;;;;;;;;;;6103640;23;20188;-87
2022/02/17 16:13:45;;;;;;;11.57;2.40;;;;;;;;;;6135941;23;20154;-85
2022/02/17 16:16:51;;;;;;;13.17;3.03;;;;;;;;;;6119333;23;20159;-86
2022/02/17 16:19:55;;;;;;;15.57;2.60;;;;;;;;;;6103468;23;20164;-85
2022/02/17 16:22:59;;;;;;;12.13;3.43;;;;;;;;;;6102373;23;20157;-88
2022/02/17 16:26:03;;;;;;;14.33;2.53;;;;;;;;;;6109900;23;20583;-86
2022/02/17 16:29:07;;;;;;;10.27;2.30;;;;;;;;;;6120645;23;20154;-88
2022/02/17 16:32:12;;;;;;;12.30;2.67;;;;;;;;;;6120195;23;20186;-86
2022/02/17 16:35:16;;;;;;;12.40;3.30;;;;;;;;;;6131840;23;20194;-87
2022/02/17 16:38:20;;;;;;;14.60;2.80;;;;;;;;;;6138199;23;20164;-86
2022/02/17 16:41:24;;;;;;;12.97;2.70;;;;;;;;;;6121474;23;20156;-86
2022/02/17 16:44:30;;;;;;;9.67;2.50;;;;;;;;;;6117840;23;20190;-88
2022/02/17 16:47:35;;;;;;;10.47;2.20;;;;;;;;;;6124644;23;20154;-86
2022/02/17 16:50:41;;;;;;;15.13;3.50;;;;;;;;;;6120791;23;20193;-88
2022/02/17 16:53:45;;;;;;;9.30;4.03;;;;;;;;;;6123178;23;20169;-86
2022/02/17 16:56:49;;;;;;;10.13;2.67;;;;;;;;;;6133200;23;20153;-88
2022/02/17 16:59:53;;;;;;;11.57;3.33;;;;;;;;;;6133475;23;20182;-86
2022/02/17 17:02:58;;;;;;;8.53;2.00;;;;;;;;;;6108273;23;20170;-87
2022/02/17 17:06:02;;;;;;;10.50;2.57;;;;;;;;;;6123623;23;20658;-87
2022/02/17 17:09:07;;;;;;;12.80;2.47;;;;;;;;;;6117041;23;20153;-89
2022/02/17 17:12:11;;;;;;;10.27;2.70;;;;;;;;;;6132868;23;20185;-89
2022/02/17 17:15:18;;;;;;;10.87;2.20;;;;;;;;;;6143408;23;20189;-86
2022/02/17 17:18:22;;;;;;;8.30;2.90;;;;;;;;;;6125410;23;20173;-88
2022/02/17 17:21:27;;;;;;;12.17;2.47;;;;;;;;;;6134020;23;20150;-86
2022/02/17 17:24:31;;;;;;;9.50;2.87;;;;;;;;;;6129881;23;20189;-88
2022/02/17 17:27:35;;;;;;;8.13;2.27;;;;;;;;;;6116661;23;20158;-88
2022/02/17 17:30:39;;;;;;;9.37;2.37;;;;;;;;;;6139890;23;20173;-87
2022/02/17 17:33:43;;;;;;;7.73;2.27;;;;;;;;;;6151987;23;20460;-85
2022/02/17 17:36:48;;;;;;;11.70;3.77;;;;;;;;;;6135207;23;20157;-85
2022/02/17 17:39:52;;;;;;;11.53;3.37;;;;;;;;;;6133170;23;20606;-85
2022/02/17 17:42:57;;;;;;;10.57;3.20;;;;;;;;;;6131996;23;20150;-88
2022/02/17 17:46:01;;;;;;;9.77;2.57;;;;;;;;;;6106601;23;20194;-85
2022/02/17 17:49:05;;;;;;;7.63;2.20;;;;;;;;;;6133823;23;20594;-88
2022/02/17 17:52:10;;;;;;;9.27;2.43;;;;;;;;;;6117364;23;20182;-88
2022/02/17 17:55:14;;;;;;;11.17;2.50;;;;;;;;;;6119043;23;20205;-86
2022/02/17 17:58:19;;;;;;;8.63;2.67;;;;;;;;;;6106768;23;20158;-87
2022/02/17 18:01:23;;;;;;;7.73;1.77;;;;;;;;;;6120530;23;20151;-88
2022/02/17 18:04:28;;;;;;;11.97;2.47;;;;;;;;;;6135373;23;20508;-88
2022/02/17 18:07:32;;;;;;;11.80;2.57;;;;;;;;;;6120268;23;20154;-88
2022/02/17 18:10:37;;;;;;;11.20;2.70;;;;;;;;;;6104531;23;20151;-86
2022/02/17 18:13:42;;;;;;;12.77;2.90;;;;;;;;;;6103863;23;20469;-86
2022/02/17 18:16:46;;;;;;;9.93;3.50;;;;;;;;;;6137864;23;20154;-86
2022/02/17 18:19:50;;;;;;;12.27;2.90;;;;;;;;;;6154995;23;20154;-85
2022/02/17 18:23:01;;;;;;;11.20;2.40;;;;;;;;;;6104482;23;20155;-86
2022/02/17 18:26:05;;;;;;;11.23;2.70;;;;;;;;;;6103579;23;20162;-88
2022/02/17 18:29:10;;;;;;;13.20;2.50;;;;;;;;;;6140056;23;20154;-86
2022/02/17 18:32:15;;;;;;;11.47;2.23;;;;;;;;;;6122085;23;20773;-86
2022/02/17 18:35:21;;;;;;;13.53;2.87;;;;;;;;;;6114132;23;20193;-88
2022/02/17 18:38:28;;;;;;;12.00;2.83;;;;;;;;;;6144010;23;20174;-88
2022/02/17 18:41:37;;;;;;;11.20;2.57;;;;;;;;;;6109828;23;20170;-88